Relevés horaires Kleine Brogel (Belgique)


Relevés horaires à Kleine Brogel - Dimanche 21 Avr. 2024
Heure UTC1 Température [°C] Vent [km/h] Hum. [%] Pres.4 [hPa] Visi. [Km] Nébu. [octa] Préc.5 [mm] Cond.
2m. Res. Ros. Dir.2 Vit. Moy. Raf.3
23:00 3.8 3.8 2.1 N 3.7 -- 7.4 89 1027(0.5/3h) >70 -- -- --
22:00 3.2 3.2 1.9 NNO 3.7 -- 7.4 91 1026.7(0.8/3h) >70 -- -- --
21:00 3.4 3.4 1.9 NNO 1.9 -- 11.1 90 1026.5(0.8/3h) >70 -- -- --
20:00 4.2 4.2 2.2 N 3.7 -- 7.4 87 1026.4(0.8/3h) >70 -- -- --
19:00 5.0 3.9 2.6 N 5.6 -- 11.1 84 1025.9(1.1/3h) >70 -- -- --
18:00 5.0 5.0 3.4 NNO 1.9 -- 22.2 89 1025.7(0.9/3h) >70 -- -- NA
17:00 6.2 3.5 2.5 NE 13.0 -- 22.2 77 1025.5(0.8/3h) 22 -- -- Il y a de la pluie faible et continue à la station au moment de l'observation
16:00 9.1 8.1 2.6 NNE 7.4 -- 18.5 64 1024.7(-0.2/3h) >70 -- -- NA
15:00 9.6 8 -0.7 NNE 11.1 -- 18.5 49 1024.7(-0.1/3h) >70 -- -- NA
14:00 9.9 8.6 0.1 NNE 9.3 -- 14.8 50 1024.5(0.1/3h) >70 -- -- --
13:00 8.8 7.3 0.1 N 9.3 -- 14.8 54 1025(0.8/3h) >70 -- -- --
12:00 8.8 7.3 0.2 N 9.3 -- 18.5 55 1024.7(1.3/3h) >70 -- -- NA
11:00 7.8 5.5 0.8 NE 13.0 -- 18.5 61 1024.7(2.1/3h) >70 -- -- --
10:00 7.9 6.3 1.0 NE 9.3 -- 16.7 62 1024.2(2.6/3h) >70 -- -- --
09:00 5.9 3.5 1.4 NE 11.1 -- 16.7 73 1023.6(2.3/3h) >70 -- -- NA
08:00 4.7 2.9 2.0 NNE 7.4 -- 13.0 83 1022.6(1.7/3h) >70 -- -- NA
07:00 4.3 3.1 1.1 N 5.6 -- 11.1 80 1021.6(0.0/3h) >70 -- -- --
06:00 4.0 2.7 1.5 NO 5.6 -- 13.0 84 1021.2(-0.8/3h) >70 -- -- NA
04:00 2.7 2.7 0.7 O 3.7 -- 7.4 87 1021.5(-1.1/3h) >70 -- -- --
03:00 2.9 2.9 0.6 ONO 3.7 -- 9.3 85 1022(-1.0/3h) >70 -- -- --
02:00 4.0 4.0 1.1 ONO 3.7 -- 9.3 81 1022.2(-1.4/3h) >70 -- -- --
01:00 4.8 4.8 1.3 O 3.7 -- 7.4 78 1022.7(-1.0/3h) 17 -- -- --
00:00 4.9 4.9 1.8 O 3.7 -- 16.7 80 1023(-0.8/3h) 16 -- -- NA

1 Coordinated Universal Time. Actuellement il est 01:00 locale et 23:00 UTC.

2 Le vent souffle depuis la direction indiquée vers la direction oposée.

3 Les rafales max. sont disponible 40 min après l'heure du relevé.

4 Pour les stations d'altitude (plus de 600m) le géopotentiel du niveau le plus proche de la pression obligatoire est indiqué.

5 Les stations disposant d'un diffuseur peuvent indiquer "trace". Cela signifie que des précipitations ont touchés le sol mais que la quantité est inférieure à 0.1 mm.

Récapitulatif de la journée
Température [°C] Vent [km/h] Ensoleillement4 [h] Precipitations totale5 [mm] Pression [Hpa]
Min1 Max.2 Moy.3 Max. Min Max.
2.0 11.3 0 22.2 0 h 0 min 0 1021.2 1027.0

1 Température minimale relevée entre 18:00 UTC la veille et 18:00 UTC le jour donné.

2 Température maximale relevée entre 06:00 UTC le jour donné et 06:00 UTC le lendemain.

3 Vent moyen de la journée basé sur les relevés horaires.

4 Ensoleillement en heures relevé entre 06:00 UTC la veille et 06:00 UTC le jour donné.

5 Précipitations totales tombées entre 06:00 UTC la jour donné et 06:00 UTC le lendemain.

Graphiques horaires